sensor_id;sensor_type;location;lat;lon;timestamp;P1;durP1;ratioP1;P2;durP2;ratioP2
71038;SDS011;58692;43.212;27.908;2023-07-09T00:01:34;5.63;;;2.47;;
71038;SDS011;58692;43.212;27.908;2023-07-09T00:04:00;6.67;;;2.17;;
71038;SDS011;58692;43.212;27.908;2023-07-09T00:06:25;8.70;;;2.60;;
71038;SDS011;58692;43.212;27.908;2023-07-09T00:08:51;6.80;;;2.20;;
71038;SDS011;58692;43.212;27.908;2023-07-09T00:11:17;5.50;;;2.22;;
71038;SDS011;58692;43.212;27.908;2023-07-09T00:13:43;6.57;;;2.40;;
71038;SDS011;58692;43.212;27.908;2023-07-09T00:16:18;6.78;;;2.50;;
71038;SDS011;58692;43.212;27.908;2023-07-09T00:18:46;8.98;;;2.60;;
71038;SDS011;58692;43.212;27.908;2023-07-09T00:21:13;6.90;;;2.78;;
71038;SDS011;58692;43.212;27.908;2023-07-09T00:23:40;5.33;;;2.33;;
71038;SDS011;58692;43.212;27.908;2023-07-09T00:26:08;7.03;;;2.70;;
71038;SDS011;58692;43.212;27.908;2023-07-09T00:28:35;4.90;;;2.25;;
71038;SDS011;58692;43.212;27.908;2023-07-09T00:31:01;5.67;;;2.40;;
71038;SDS011;58692;43.212;27.908;2023-07-09T00:33:26;9.10;;;2.57;;
71038;SDS011;58692;43.212;27.908;2023-07-09T00:35:56;9.57;;;2.60;;
71038;SDS011;58692;43.212;27.908;2023-07-09T00:38:22;5.38;;;2.15;;
71038;SDS011;58692;43.212;27.908;2023-07-09T00:40:58;8.13;;;2.28;;
71038;SDS011;58692;43.212;27.908;2023-07-09T00:43:29;5.80;;;2.30;;
71038;SDS011;58692;43.212;27.908;2023-07-09T00:49:02;5.50;;;2.27;;
71038;SDS011;58692;43.212;27.908;2023-07-09T00:51:31;5.35;;;2.35;;
71038;SDS011;58692;43.212;27.908;2023-07-09T00:54:03;7.25;;;2.30;;
71038;SDS011;58692;43.212;27.908;2023-07-09T00:56:40;8.13;;;2.70;;
71038;SDS011;58692;43.212;27.908;2023-07-09T00:59:11;5.95;;;2.30;;
71038;SDS011;58692;43.212;27.908;2023-07-09T01:01:42;7.17;;;2.70;;
71038;SDS011;58692;43.212;27.908;2023-07-09T01:04:08;5.95;;;2.50;;
71038;SDS011;58692;43.212;27.908;2023-07-09T01:06:36;5.05;;;2.35;;
71038;SDS011;58692;43.212;27.908;2023-07-09T01:09:06;8.18;;;2.30;;
71038;SDS011;58692;43.212;27.908;2023-07-09T01:11:33;6.50;;;2.27;;
71038;SDS011;58692;43.212;27.908;2023-07-09T01:13:59;4.55;;;2.20;;
71038;SDS011;58692;43.212;27.908;2023-07-09T01:16:28;6.10;;;2.45;;
71038;SDS011;58692;43.212;27.908;2023-07-09T01:18:55;4.88;;;2.15;;
71038;SDS011;58692;43.212;27.908;2023-07-09T01:21:21;5.53;;;2.47;;
71038;SDS011;58692;43.212;27.908;2023-07-09T01:23:47;6.00;;;2.33;;
71038;SDS011;58692;43.212;27.908;2023-07-09T01:26:19;5.63;;;2.22;;
71038;SDS011;58692;43.212;27.908;2023-07-09T01:28:50;4.60;;;2.13;;
71038;SDS011;58692;43.212;27.908;2023-07-09T01:31:16;6.78;;;2.40;;
71038;SDS011;58692;43.212;27.908;2023-07-09T01:33:42;6.45;;;2.30;;
71038;SDS011;58692;43.212;27.908;2023-07-09T01:36:10;5.37;;;2.20;;
71038;SDS011;58692;43.212;27.908;2023-07-09T01:38:39;5.57;;;2.30;;
71038;SDS011;58692;43.212;27.908;2023-07-09T01:41:05;6.40;;;2.10;;
71038;SDS011;58692;43.212;27.908;2023-07-09T01:43:31;5.55;;;2.33;;
71038;SDS011;58692;43.212;27.908;2023-07-09T01:45:57;4.87;;;2.17;;
71038;SDS011;58692;43.212;27.908;2023-07-09T01:48:24;4.85;;;2.20;;
71038;SDS011;58692;43.212;27.908;2023-07-09T01:50:51;12.45;;;2.72;;
71038;SDS011;58692;43.212;27.908;2023-07-09T01:53:19;6.45;;;2.40;;
71038;SDS011;58692;43.212;27.908;2023-07-09T01:55:48;5.97;;;2.20;;
71038;SDS011;58692;43.212;27.908;2023-07-09T01:58:15;5.72;;;2.22;;
71038;SDS011;58692;43.212;27.908;2023-07-09T02:00:41;4.47;;;2.08;;
71038;SDS011;58692;43.212;27.908;2023-07-09T02:03:07;6.13;;;2.30;;
71038;SDS011;58692;43.212;27.908;2023-07-09T02:05:35;5.32;;;2.30;;
71038;SDS011;58692;43.212;27.908;2023-07-09T02:08:01;5.60;;;2.23;;
71038;SDS011;58692;43.212;27.908;2023-07-09T02:10:27;5.40;;;2.28;;
71038;SDS011;58692;43.212;27.908;2023-07-09T02:12:53;6.53;;;2.40;;
71038;SDS011;58692;43.212;27.908;2023-07-09T02:15:18;6.40;;;2.15;;
71038;SDS011;58692;43.212;27.908;2023-07-09T02:17:44;4.95;;;2.20;;
71038;SDS011;58692;43.212;27.908;2023-07-09T02:20:10;4.90;;;2.10;;
71038;SDS011;58692;43.212;27.908;2023-07-09T02:22:36;5.68;;;2.22;;
71038;SDS011;58692;43.212;27.908;2023-07-09T02:25:04;6.53;;;2.10;;
71038;SDS011;58692;43.212;27.908;2023-07-09T02:27:31;5.15;;;2.10;;
71038;SDS011;58692;43.212;27.908;2023-07-09T02:29:57;5.97;;;2.37;;
71038;SDS011;58692;43.212;27.908;2023-07-09T02:32:23;5.03;;;2.10;;
71038;SDS011;58692;43.212;27.908;2023-07-09T02:34:51;5.05;;;2.20;;
71038;SDS011;58692;43.212;27.908;2023-07-09T02:37:19;5.10;;;2.53;;
71038;SDS011;58692;43.212;27.908;2023-07-09T02:39:46;4.53;;;2.08;;
71038;SDS011;58692;43.212;27.908;2023-07-09T02:42:12;4.97;;;2.03;;
71038;SDS011;58692;43.212;27.908;2023-07-09T02:44:39;4.95;;;2.20;;
71038;SDS011;58692;43.212;27.908;2023-07-09T02:47:07;7.53;;;2.38;;
71038;SDS011;58692;43.212;27.908;2023-07-09T02:49:33;5.17;;;2.20;;
71038;SDS011;58692;43.212;27.908;2023-07-09T02:51:59;3.75;;;2.10;;
71038;SDS011;58692;43.212;27.908;2023-07-09T02:54:25;4.93;;;2.22;;
71038;SDS011;58692;43.212;27.908;2023-07-09T02:56:50;7.07;;;2.43;;
71038;SDS011;58692;43.212;27.908;2023-07-09T02:59:16;5.43;;;2.20;;
71038;SDS011;58692;43.212;27.908;2023-07-09T03:01:42;5.27;;;2.47;;
71038;SDS011;58692;43.212;27.908;2023-07-09T03:04:07;5.97;;;2.30;;
71038;SDS011;58692;43.212;27.908;2023-07-09T03:06:35;5.43;;;2.17;;
71038;SDS011;58692;43.212;27.908;2023-07-09T03:09:01;6.03;;;2.58;;
71038;SDS011;58692;43.212;27.908;2023-07-09T03:11:29;4.50;;;2.00;;
71038;SDS011;58692;43.212;27.908;2023-07-09T03:13:56;5.47;;;2.20;;
71038;SDS011;58692;43.212;27.908;2023-07-09T03:16:23;5.22;;;2.10;;
71038;SDS011;58692;43.212;27.908;2023-07-09T03:18:49;5.90;;;2.20;;
71038;SDS011;58692;43.212;27.908;2023-07-09T03:21:14;7.93;;;2.60;;
71038;SDS011;58692;43.212;27.908;2023-07-09T03:23:40;4.90;;;2.10;;
71038;SDS011;58692;43.212;27.908;2023-07-09T03:26:06;6.20;;;2.33;;
71038;SDS011;58692;43.212;27.908;2023-07-09T03:28:31;5.37;;;2.13;;
71038;SDS011;58692;43.212;27.908;2023-07-09T03:30:57;5.47;;;2.30;;
71038;SDS011;58692;43.212;27.908;2023-07-09T03:33:23;4.53;;;2.20;;
71038;SDS011;58692;43.212;27.908;2023-07-09T03:35:50;4.82;;;2.10;;
71038;SDS011;58692;43.212;27.908;2023-07-09T03:38:16;4.27;;;2.30;;
71038;SDS011;58692;43.212;27.908;2023-07-09T03:40:42;5.72;;;2.20;;
71038;SDS011;58692;43.212;27.908;2023-07-09T03:43:08;4.83;;;2.20;;
71038;SDS011;58692;43.212;27.908;2023-07-09T03:45:35;7.07;;;2.38;;
71038;SDS011;58692;43.212;27.908;2023-07-09T03:48:02;5.90;;;2.33;;
71038;SDS011;58692;43.212;27.908;2023-07-09T03:50:28;7.80;;;2.47;;
71038;SDS011;58692;43.212;27.908;2023-07-09T03:52:54;6.10;;;2.17;;
71038;SDS011;58692;43.212;27.908;2023-07-09T03:55:19;6.20;;;2.43;;
71038;SDS011;58692;43.212;27.908;2023-07-09T03:57:45;7.38;;;2.30;;
71038;SDS011;58692;43.212;27.908;2023-07-09T04:00:11;7.80;;;2.40;;
71038;SDS011;58692;43.212;27.908;2023-07-09T04:02:38;5.03;;;2.40;;
71038;SDS011;58692;43.212;27.908;2023-07-09T04:05:05;9.02;;;2.13;;
71038;SDS011;58692;43.212;27.908;2023-07-09T04:07:33;4.82;;;2.13;;
71038;SDS011;58692;43.212;27.908;2023-07-09T04:09:59;6.35;;;2.10;;
71038;SDS011;58692;43.212;27.908;2023-07-09T04:12:25;6.83;;;2.40;;
71038;SDS011;58692;43.212;27.908;2023-07-09T04:14:51;5.68;;;2.50;;
71038;SDS011;58692;43.212;27.908;2023-07-09T04:17:16;7.80;;;2.20;;
71038;SDS011;58692;43.212;27.908;2023-07-09T04:19:42;4.77;;;2.20;;
71038;SDS011;58692;43.212;27.908;2023-07-09T04:22:08;10.03;;;2.23;;
71038;SDS011;58692;43.212;27.908;2023-07-09T04:24:36;5.70;;;2.30;;
71038;SDS011;58692;43.212;27.908;2023-07-09T04:27:01;7.27;;;2.27;;
71038;SDS011;58692;43.212;27.908;2023-07-09T04:29:29;4.57;;;2.03;;
71038;SDS011;58692;43.212;27.908;2023-07-09T04:31:55;7.05;;;2.35;;
71038;SDS011;58692;43.212;27.908;2023-07-09T04:34:21;5.10;;;2.40;;
71038;SDS011;58692;43.212;27.908;2023-07-09T04:36:47;7.32;;;2.45;;
71038;SDS011;58692;43.212;27.908;2023-07-09T04:39:13;5.87;;;2.40;;
71038;SDS011;58692;43.212;27.908;2023-07-09T04:41:40;7.40;;;2.70;;
71038;SDS011;58692;43.212;27.908;2023-07-09T04:44:05;6.53;;;2.80;;
71038;SDS011;58692;43.212;27.908;2023-07-09T04:46:31;8.03;;;2.50;;
71038;SDS011;58692;43.212;27.908;2023-07-09T04:48:57;5.65;;;2.40;;
71038;SDS011;58692;43.212;27.908;2023-07-09T04:51:22;7.20;;;2.40;;
71038;SDS011;58692;43.212;27.908;2023-07-09T04:53:47;6.83;;;2.50;;
71038;SDS011;58692;43.212;27.908;2023-07-09T04:56:16;7.55;;;2.50;;
71038;SDS011;58692;43.212;27.908;2023-07-09T04:58:42;4.80;;;2.47;;
71038;SDS011;58692;43.212;27.908;2023-07-09T05:01:07;6.23;;;2.70;;
71038;SDS011;58692;43.212;27.908;2023-07-09T05:03:33;6.63;;;2.80;;
71038;SDS011;58692;43.212;27.908;2023-07-09T05:05:59;7.25;;;2.72;;
71038;SDS011;58692;43.212;27.908;2023-07-09T05:08:24;5.17;;;2.47;;
71038;SDS011;58692;43.212;27.908;2023-07-09T05:10:50;8.77;;;2.47;;
71038;SDS011;58692;43.212;27.908;2023-07-09T05:13:17;7.30;;;2.95;;
71038;SDS011;58692;43.212;27.908;2023-07-09T05:15:43;7.80;;;2.88;;
71038;SDS011;58692;43.212;27.908;2023-07-09T05:18:11;7.72;;;2.80;;
71038;SDS011;58692;43.212;27.908;2023-07-09T05:20:37;6.60;;;2.87;;
71038;SDS011;58692;43.212;27.908;2023-07-09T05:23:03;6.88;;;2.50;;
71038;SDS011;58692;43.212;27.908;2023-07-09T05:25:29;8.13;;;2.57;;
71038;SDS011;58692;43.212;27.908;2023-07-09T05:27:54;8.63;;;2.75;;
71038;SDS011;58692;43.212;27.908;2023-07-09T05:30:20;6.20;;;2.67;;
71038;SDS011;58692;43.212;27.908;2023-07-09T05:32:46;6.00;;;2.33;;
71038;SDS011;58692;43.212;27.908;2023-07-09T05:35:11;7.50;;;2.80;;
71038;SDS011;58692;43.212;27.908;2023-07-09T05:37:37;6.20;;;2.90;;
71038;SDS011;58692;43.212;27.908;2023-07-09T05:40:03;10.43;;;2.83;;
71038;SDS011;58692;43.212;27.908;2023-07-09T05:42:31;6.78;;;2.63;;
71038;SDS011;58692;43.212;27.908;2023-07-09T05:44:57;4.90;;;2.67;;
71038;SDS011;58692;43.212;27.908;2023-07-09T05:47:23;6.22;;;2.67;;
71038;SDS011;58692;43.212;27.908;2023-07-09T05:49:49;6.65;;;2.40;;
71038;SDS011;58692;43.212;27.908;2023-07-09T05:52:16;6.67;;;2.50;;
71038;SDS011;58692;43.212;27.908;2023-07-09T05:54:42;6.22;;;2.50;;
71038;SDS011;58692;43.212;27.908;2023-07-09T05:57:08;6.95;;;2.78;;
71038;SDS011;58692;43.212;27.908;2023-07-09T05:59:34;6.17;;;2.67;;
71038;SDS011;58692;43.212;27.908;2023-07-09T06:02:00;7.30;;;2.80;;
71038;SDS011;58692;43.212;27.908;2023-07-09T06:04:26;5.93;;;2.80;;
71038;SDS011;58692;43.212;27.908;2023-07-09T06:06:51;6.07;;;2.80;;
71038;SDS011;58692;43.212;27.908;2023-07-09T06:09:17;5.88;;;2.90;;
71038;SDS011;58692;43.212;27.908;2023-07-09T06:11:43;7.63;;;3.00;;
71038;SDS011;58692;43.212;27.908;2023-07-09T06:14:09;5.15;;;2.80;;
71038;SDS011;58692;43.212;27.908;2023-07-09T06:16:35;6.88;;;2.60;;
71038;SDS011;58692;43.212;27.908;2023-07-09T06:19:01;7.93;;;2.83;;
71038;SDS011;58692;43.212;27.908;2023-07-09T06:21:26;11.40;;;2.70;;
71038;SDS011;58692;43.212;27.908;2023-07-09T06:23:51;7.33;;;2.67;;
71038;SDS011;58692;43.212;27.908;2023-07-09T06:26:17;10.83;;;3.83;;
71038;SDS011;58692;43.212;27.908;2023-07-09T06:28:43;8.00;;;2.75;;
71038;SDS011;58692;43.212;27.908;2023-07-09T06:31:08;8.60;;;2.80;;
71038;SDS011;58692;43.212;27.908;2023-07-09T06:33:34;7.10;;;2.60;;
71038;SDS011;58692;43.212;27.908;2023-07-09T06:36:00;6.40;;;2.60;;
71038;SDS011;58692;43.212;27.908;2023-07-09T06:38:26;6.55;;;2.67;;
71038;SDS011;58692;43.212;27.908;2023-07-09T06:40:52;6.15;;;2.80;;
71038;SDS011;58692;43.212;27.908;2023-07-09T06:43:19;6.80;;;2.60;;
71038;SDS011;58692;43.212;27.908;2023-07-09T06:45:53;5.72;;;2.72;;
71038;SDS011;58692;43.212;27.908;2023-07-09T06:48:21;4.80;;;2.60;;
71038;SDS011;58692;43.212;27.908;2023-07-09T06:50:47;6.55;;;2.80;;
71038;SDS011;58692;43.212;27.908;2023-07-09T06:53:13;6.07;;;2.40;;
71038;SDS011;58692;43.212;27.908;2023-07-09T06:55:39;10.88;;;3.08;;
71038;SDS011;58692;43.212;27.908;2023-07-09T06:58:05;10.80;;;2.97;;
71038;SDS011;58692;43.212;27.908;2023-07-09T07:00:31;8.52;;;2.53;;
71038;SDS011;58692;43.212;27.908;2023-07-09T07:02:58;9.20;;;2.97;;
71038;SDS011;58692;43.212;27.908;2023-07-09T07:05:24;12.30;;;3.08;;
71038;SDS011;58692;43.212;27.908;2023-07-09T07:07:49;11.97;;;2.87;;
71038;SDS011;58692;43.212;27.908;2023-07-09T07:10:15;13.40;;;3.03;;
71038;SDS011;58692;43.212;27.908;2023-07-09T07:12:41;8.93;;;2.63;;
71038;SDS011;58692;43.212;27.908;2023-07-09T07:15:09;8.00;;;2.70;;
71038;SDS011;58692;43.212;27.908;2023-07-09T07:17:35;8.40;;;3.00;;
71038;SDS011;58692;43.212;27.908;2023-07-09T07:20:00;9.15;;;3.00;;
71038;SDS011;58692;43.212;27.908;2023-07-09T07:22:26;6.53;;;2.50;;
71038;SDS011;58692;43.212;27.908;2023-07-09T07:24:51;14.03;;;3.33;;
71038;SDS011;58692;43.212;27.908;2023-07-09T07:27:17;13.10;;;3.10;;
71038;SDS011;58692;43.212;27.908;2023-07-09T07:29:42;9.53;;;3.13;;
71038;SDS011;58692;43.212;27.908;2023-07-09T07:32:08;10.53;;;3.23;;
71038;SDS011;58692;43.212;27.908;2023-07-09T07:34:33;8.93;;;2.60;;
71038;SDS011;58692;43.212;27.908;2023-07-09T07:36:59;10.17;;;2.90;;
71038;SDS011;58692;43.212;27.908;2023-07-09T07:39:24;15.13;;;3.10;;
71038;SDS011;58692;43.212;27.908;2023-07-09T07:41:50;6.70;;;2.97;;
71038;SDS011;58692;43.212;27.908;2023-07-09T07:44:16;10.63;;;3.00;;
71038;SDS011;58692;43.212;27.908;2023-07-09T07:46:42;7.30;;;2.85;;
71038;SDS011;58692;43.212;27.908;2023-07-09T07:49:08;8.27;;;2.90;;
71038;SDS011;58692;43.212;27.908;2023-07-09T07:51:33;8.10;;;2.90;;
71038;SDS011;58692;43.212;27.908;2023-07-09T07:53:59;12.37;;;3.00;;
71038;SDS011;58692;43.212;27.908;2023-07-09T07:56:24;9.20;;;3.30;;
71038;SDS011;58692;43.212;27.908;2023-07-09T07:58:51;10.80;;;2.87;;
71038;SDS011;58692;43.212;27.908;2023-07-09T08:01:17;9.70;;;2.92;;
71038;SDS011;58692;43.212;27.908;2023-07-09T08:03:42;11.80;;;3.23;;
71038;SDS011;58692;43.212;27.908;2023-07-09T08:06:08;10.93;;;2.85;;
71038;SDS011;58692;43.212;27.908;2023-07-09T08:08:33;15.43;;;3.50;;
71038;SDS011;58692;43.212;27.908;2023-07-09T08:11:00;11.90;;;3.58;;
71038;SDS011;58692;43.212;27.908;2023-07-09T08:13:30;6.87;;;2.90;;
71038;SDS011;58692;43.212;27.908;2023-07-09T08:15:57;9.80;;;3.00;;
71038;SDS011;58692;43.212;27.908;2023-07-09T08:18:23;9.30;;;3.33;;
71038;SDS011;58692;43.212;27.908;2023-07-09T08:20:48;10.07;;;3.27;;
71038;SDS011;58692;43.212;27.908;2023-07-09T08:23:14;11.17;;;3.07;;
71038;SDS011;58692;43.212;27.908;2023-07-09T08:25:39;10.00;;;3.40;;
71038;SDS011;58692;43.212;27.908;2023-07-09T08:28:05;9.63;;;3.10;;
71038;SDS011;58692;43.212;27.908;2023-07-09T08:30:31;8.63;;;3.30;;
71038;SDS011;58692;43.212;27.908;2023-07-09T08:32:56;9.07;;;2.93;;
71038;SDS011;58692;43.212;27.908;2023-07-09T08:35:22;5.73;;;2.90;;
71038;SDS011;58692;43.212;27.908;2023-07-09T08:37:48;8.93;;;3.10;;
71038;SDS011;58692;43.212;27.908;2023-07-09T08:40:14;9.50;;;3.00;;
71038;SDS011;58692;43.212;27.908;2023-07-09T08:42:43;8.48;;;3.30;;
71038;SDS011;58692;43.212;27.908;2023-07-09T08:45:15;8.50;;;3.35;;
71038;SDS011;58692;43.212;27.908;2023-07-09T08:47:47;10.52;;;3.38;;
71038;SDS011;58692;43.212;27.908;2023-07-09T08:50:39;13.48;;;3.33;;
71038;SDS011;58692;43.212;27.908;2023-07-09T08:53:13;16.90;;;3.57;;
71038;SDS011;58692;43.212;27.908;2023-07-09T08:55:44;12.75;;;3.03;;
71038;SDS011;58692;43.212;27.908;2023-07-09T08:58:20;15.95;;;3.45;;
71038;SDS011;58692;43.212;27.908;2023-07-09T09:00:58;7.70;;;3.15;;
71038;SDS011;58692;43.212;27.908;2023-07-09T09:06:08;10.47;;;3.20;;
71038;SDS011;58692;43.212;27.908;2023-07-09T09:16:56;8.90;;;3.15;;
71038;SDS011;58692;43.212;27.908;2023-07-09T09:19:25;8.57;;;3.30;;
71038;SDS011;58692;43.212;27.908;2023-07-09T09:21:57;9.10;;;3.38;;
71038;SDS011;58692;43.212;27.908;2023-07-09T09:24:31;8.27;;;2.80;;
71038;SDS011;58692;43.212;27.908;2023-07-09T09:27:01;8.00;;;2.80;;
71038;SDS011;58692;43.212;27.908;2023-07-09T09:29:27;11.73;;;3.07;;
71038;SDS011;58692;43.212;27.908;2023-07-09T09:31:55;8.65;;;3.30;;
71038;SDS011;58692;43.212;27.908;2023-07-09T09:34:25;9.55;;;3.22;;
71038;SDS011;58692;43.212;27.908;2023-07-09T09:36:53;7.85;;;3.03;;
71038;SDS011;58692;43.212;27.908;2023-07-09T09:39:19;13.07;;;3.20;;
71038;SDS011;58692;43.212;27.908;2023-07-09T09:41:46;9.27;;;3.10;;
71038;SDS011;58692;43.212;27.908;2023-07-09T09:44:17;8.15;;;3.22;;
71038;SDS011;58692;43.212;27.908;2023-07-09T09:46:45;6.82;;;2.90;;
71038;SDS011;58692;43.212;27.908;2023-07-09T09:49:12;8.65;;;3.10;;
71038;SDS011;58692;43.212;27.908;2023-07-09T09:51:40;9.80;;;3.00;;
71038;SDS011;58692;43.212;27.908;2023-07-09T09:54:11;14.15;;;3.08;;
71038;SDS011;58692;43.212;27.908;2023-07-09T09:56:44;10.18;;;3.38;;
71038;SDS011;58692;43.212;27.908;2023-07-09T09:59:19;7.30;;;3.20;;
71038;SDS011;58692;43.212;27.908;2023-07-09T10:01:47;6.60;;;3.13;;
71038;SDS011;58692;43.212;27.908;2023-07-09T10:04:20;7.53;;;2.93;;
71038;SDS011;58692;43.212;27.908;2023-07-09T10:06:49;7.78;;;3.33;;
71038;SDS011;58692;43.212;27.908;2023-07-09T10:11:46;7.50;;;3.20;;
71038;SDS011;58692;43.212;27.908;2023-07-09T10:14:23;7.28;;;3.40;;
71038;SDS011;58692;43.212;27.908;2023-07-09T10:17:00;13.63;;;3.25;;
71038;SDS011;58692;43.212;27.908;2023-07-09T10:19:53;9.45;;;2.85;;
71038;SDS011;58692;43.212;27.908;2023-07-09T10:22:28;7.57;;;3.40;;
71038;SDS011;58692;43.212;27.908;2023-07-09T10:30:01;8.40;;;3.20;;
71038;SDS011;58692;43.212;27.908;2023-07-09T10:35:50;8.00;;;2.90;;
71038;SDS011;58692;43.212;27.908;2023-07-09T10:41:33;6.90;;;3.20;;
71038;SDS011;58692;43.212;27.908;2023-07-09T10:44:08;8.43;;;3.22;;
71038;SDS011;58692;43.212;27.908;2023-07-09T10:46:39;9.38;;;3.10;;
71038;SDS011;58692;43.212;27.908;2023-07-09T10:49:10;8.80;;;3.60;;
71038;SDS011;58692;43.212;27.908;2023-07-09T10:51:39;7.10;;;3.00;;
71038;SDS011;58692;43.212;27.908;2023-07-09T10:56:48;10.38;;;3.40;;
71038;SDS011;58692;43.212;27.908;2023-07-09T10:59:25;8.48;;;3.42;;
71038;SDS011;58692;43.212;27.908;2023-07-09T11:01:56;7.63;;;3.20;;
71038;SDS011;58692;43.212;27.908;2023-07-09T11:04:29;9.77;;;3.58;;
71038;SDS011;58692;43.212;27.908;2023-07-09T11:07:03;9.75;;;3.38;;
71038;SDS011;58692;43.212;27.908;2023-07-09T11:09:33;10.07;;;3.20;;
71038;SDS011;58692;43.212;27.908;2023-07-09T11:12:05;9.68;;;3.05;;
71038;SDS011;58692;43.212;27.908;2023-07-09T11:14:36;5.90;;;3.03;;
71038;SDS011;58692;43.212;27.908;2023-07-09T11:17:07;8.30;;;3.13;;
71038;SDS011;58692;43.212;27.908;2023-07-09T11:19:43;8.43;;;3.35;;
71038;SDS011;58692;43.212;27.908;2023-07-09T11:25:04;9.65;;;3.85;;
71038;SDS011;58692;43.212;27.908;2023-07-09T11:27:32;8.03;;;3.83;;
71038;SDS011;58692;43.212;27.908;2023-07-09T11:32:44;8.23;;;3.25;;
71038;SDS011;58692;43.212;27.908;2023-07-09T11:35:20;7.53;;;3.47;;
71038;SDS011;58692;43.212;27.908;2023-07-09T11:37:49;9.55;;;3.30;;
71038;SDS011;58692;43.212;27.908;2023-07-09T11:40:16;7.53;;;3.10;;
71038;SDS011;58692;43.212;27.908;2023-07-09T11:42:49;5.68;;;2.90;;
71038;SDS011;58692;43.212;27.908;2023-07-09T11:45:16;9.57;;;2.90;;
71038;SDS011;58692;43.212;27.908;2023-07-09T11:47:51;7.77;;;3.20;;
71038;SDS011;58692;43.212;27.908;2023-07-09T11:50:22;6.90;;;2.97;;
71038;SDS011;58692;43.212;27.908;2023-07-09T11:52:52;6.88;;;3.10;;
71038;SDS011;58692;43.212;27.908;2023-07-09T11:55:23;9.43;;;2.88;;
71038;SDS011;58692;43.212;27.908;2023-07-09T11:57:54;6.95;;;3.25;;
71038;SDS011;58692;43.212;27.908;2023-07-09T12:00:22;7.37;;;3.27;;
71038;SDS011;58692;43.212;27.908;2023-07-09T12:02:48;6.03;;;3.00;;
71038;SDS011;58692;43.212;27.908;2023-07-09T12:05:18;7.70;;;3.30;;
71038;SDS011;58692;43.212;27.908;2023-07-09T12:07:46;6.45;;;3.08;;
71038;SDS011;58692;43.212;27.908;2023-07-09T12:10:17;9.55;;;3.50;;
71038;SDS011;58692;43.212;27.908;2023-07-09T12:12:46;10.13;;;2.90;;
71038;SDS011;58692;43.212;27.908;2023-07-09T12:15:15;6.63;;;2.88;;
71038;SDS011;58692;43.212;27.908;2023-07-09T12:17:52;8.60;;;3.05;;
71038;SDS011;58692;43.212;27.908;2023-07-09T12:20:18;7.65;;;3.03;;
71038;SDS011;58692;43.212;27.908;2023-07-09T12:22:44;7.50;;;3.47;;
71038;SDS011;58692;43.212;27.908;2023-07-09T12:25:18;12.43;;;3.10;;
71038;SDS011;58692;43.212;27.908;2023-07-09T12:27:46;7.28;;;2.83;;
71038;SDS011;58692;43.212;27.908;2023-07-09T12:30:12;5.90;;;2.90;;
71038;SDS011;58692;43.212;27.908;2023-07-09T12:35:18;7.25;;;3.17;;
71038;SDS011;58692;43.212;27.908;2023-07-09T12:37:45;6.60;;;2.80;;
71038;SDS011;58692;43.212;27.908;2023-07-09T12:40:15;7.15;;;3.35;;
71038;SDS011;58692;43.212;27.908;2023-07-09T12:42:52;6.37;;;2.90;;
71038;SDS011;58692;43.212;27.908;2023-07-09T12:45:20;8.38;;;3.30;;
71038;SDS011;58692;43.212;27.908;2023-07-09T12:47:46;9.50;;;3.50;;
71038;SDS011;58692;43.212;27.908;2023-07-09T12:50:23;9.35;;;3.60;;
71038;SDS011;58692;43.212;27.908;2023-07-09T12:52:54;8.63;;;3.10;;
71038;SDS011;58692;43.212;27.908;2023-07-09T12:55:22;12.20;;;3.20;;
71038;SDS011;58692;43.212;27.908;2023-07-09T12:57:51;10.13;;;3.17;;
71038;SDS011;58692;43.212;27.908;2023-07-09T13:00:20;9.57;;;3.10;;
71038;SDS011;58692;43.212;27.908;2023-07-09T13:02:51;7.75;;;3.13;;
71038;SDS011;58692;43.212;27.908;2023-07-09T13:05:21;9.77;;;3.08;;
71038;SDS011;58692;43.212;27.908;2023-07-09T13:07:50;9.30;;;3.20;;
71038;SDS011;58692;43.212;27.908;2023-07-09T13:12:49;7.18;;;3.10;;
71038;SDS011;58692;43.212;27.908;2023-07-09T13:15:21;6.60;;;2.85;;
71038;SDS011;58692;43.212;27.908;2023-07-09T13:17:49;8.55;;;3.22;;
71038;SDS011;58692;43.212;27.908;2023-07-09T13:20:21;10.40;;;3.00;;
71038;SDS011;58692;43.212;27.908;2023-07-09T13:22:47;9.98;;;3.03;;
71038;SDS011;58692;43.212;27.908;2023-07-09T13:25:12;10.80;;;3.43;;
71038;SDS011;58692;43.212;27.908;2023-07-09T13:27:37;8.67;;;3.20;;
71038;SDS011;58692;43.212;27.908;2023-07-09T13:30:03;7.88;;;3.05;;
71038;SDS011;58692;43.212;27.908;2023-07-09T13:32:29;7.23;;;3.10;;
71038;SDS011;58692;43.212;27.908;2023-07-09T13:34:55;6.70;;;2.97;;
71038;SDS011;58692;43.212;27.908;2023-07-09T13:37:20;7.93;;;3.40;;
71038;SDS011;58692;43.212;27.908;2023-07-09T13:39:46;7.47;;;3.10;;
71038;SDS011;58692;43.212;27.908;2023-07-09T13:42:13;9.40;;;3.20;;
71038;SDS011;58692;43.212;27.908;2023-07-09T13:44:41;8.02;;;3.00;;
71038;SDS011;58692;43.212;27.908;2023-07-09T13:47:10;7.00;;;3.38;;
71038;SDS011;58692;43.212;27.908;2023-07-09T13:49:39;7.30;;;3.38;;
71038;SDS011;58692;43.212;27.908;2023-07-09T13:52:08;6.67;;;3.03;;
71038;SDS011;58692;43.212;27.908;2023-07-09T13:54:39;8.25;;;3.30;;
71038;SDS011;58692;43.212;27.908;2023-07-09T13:57:06;10.25;;;3.53;;
71038;SDS011;58692;43.212;27.908;2023-07-09T13:59:35;7.70;;;3.17;;
71038;SDS011;58692;43.212;27.908;2023-07-09T14:02:01;9.63;;;3.22;;
71038;SDS011;58692;43.212;27.908;2023-07-09T14:04:26;7.47;;;3.10;;
71038;SDS011;58692;43.212;27.908;2023-07-09T14:06:53;9.18;;;3.00;;
71038;SDS011;58692;43.212;27.908;2023-07-09T14:09:18;7.97;;;3.22;;
71038;SDS011;58692;43.212;27.908;2023-07-09T14:11:45;5.97;;;3.07;;
71038;SDS011;58692;43.212;27.908;2023-07-09T14:14:19;10.85;;;3.42;;
71038;SDS011;58692;43.212;27.908;2023-07-09T14:16:49;8.07;;;3.30;;
71038;SDS011;58692;43.212;27.908;2023-07-09T14:19:18;10.80;;;3.00;;
71038;SDS011;58692;43.212;27.908;2023-07-09T14:21:46;12.70;;;3.13;;
71038;SDS011;58692;43.212;27.908;2023-07-09T14:26:55;9.00;;;3.25;;
71038;SDS011;58692;43.212;27.908;2023-07-09T14:29:22;8.85;;;3.30;;
71038;SDS011;58692;43.212;27.908;2023-07-09T14:31:48;6.23;;;2.80;;
71038;SDS011;58692;43.212;27.908;2023-07-09T14:34:22;7.80;;;3.05;;
71038;SDS011;58692;43.212;27.908;2023-07-09T14:36:49;8.02;;;3.17;;
71038;SDS011;58692;43.212;27.908;2023-07-09T14:39:16;6.30;;;3.30;;
71038;SDS011;58692;43.212;27.908;2023-07-09T14:41:41;7.93;;;3.40;;
71038;SDS011;58692;43.212;27.908;2023-07-09T14:44:15;8.00;;;3.28;;
71038;SDS011;58692;43.212;27.908;2023-07-09T14:46:49;7.80;;;3.67;;
71038;SDS011;58692;43.212;27.908;2023-07-09T14:49:16;8.60;;;3.60;;
71038;SDS011;58692;43.212;27.908;2023-07-09T14:51:42;9.93;;;3.30;;
71038;SDS011;58692;43.212;27.908;2023-07-09T14:54:14;8.73;;;3.50;;
71038;SDS011;58692;43.212;27.908;2023-07-09T14:56:44;7.65;;;3.50;;
71038;SDS011;58692;43.212;27.908;2023-07-09T14:59:10;7.30;;;3.20;;
71038;SDS011;58692;43.212;27.908;2023-07-09T15:01:35;6.43;;;3.33;;
71038;SDS011;58692;43.212;27.908;2023-07-09T15:04:06;7.78;;;3.40;;
71038;SDS011;58692;43.212;27.908;2023-07-09T15:06:51;8.70;;;3.65;;
71038;SDS011;58692;43.212;27.908;2023-07-09T15:09:19;7.43;;;3.40;;
71038;SDS011;58692;43.212;27.908;2023-07-09T15:11:47;7.00;;;3.50;;
71038;SDS011;58692;43.212;27.908;2023-07-09T15:14:15;9.77;;;3.78;;
71038;SDS011;58692;43.212;27.908;2023-07-09T15:16:40;8.40;;;3.50;;
71038;SDS011;58692;43.212;27.908;2023-07-09T15:19:14;7.20;;;3.55;;
71038;SDS011;58692;43.212;27.908;2023-07-09T15:21:41;7.93;;;3.40;;